Time;durP1;ratioP1;P1;durP2;ratioP2;P2;SDS_P1;SDS_P2;PMS_P1;PMS_P2;Temp;Humidity;BMP_temperature;BMP_pressure;BME280_temperature;BME280_humidity;BME280_pressure;Samples;Min_cycle;Max_cycle;Signal;HPM_P1;HPM_P2
2022/02/28 00:01:03;;;;;;;;;;;22.10;23.30;;;;;;489605;242;1254;-75
2022/02/28 00:03:04;;;;;;;;;;;22.10;23.30;;;;;;489684;242;1004;-75
2022/02/28 00:05:06;;;;;;;;;;;22.00;23.30;;;;;;489708;242;956;-75
2022/02/28 00:07:07;;;;;;;;;;;21.90;23.40;;;;;;489608;242;1183;-75
2022/02/28 00:09:09;;;;;;;;;;;22.00;23.40;;;;;;489633;242;1079;-75
2022/02/28 00:11:10;;;;;;;;;;;21.90;23.40;;;;;;489584;242;1132;-75
2022/02/28 00:13:11;;;;;;;;;;;21.90;23.50;;;;;;489694;242;1128;-75
2022/02/28 00:15:12;;;;;;;;;;;21.90;23.40;;;;;;489722;242;929;-75
2022/02/28 00:17:14;;;;;;;;;;;21.90;23.40;;;;;;489615;242;2127;-75
2022/02/28 00:19:15;;;;;;;;;;;21.90;23.40;;;;;;489748;242;1110;-75
2022/02/28 00:21:16;;;;;;;;;;;21.90;23.40;;;;;;489672;242;1190;-75
2022/02/28 00:23:18;;;;;;;;;;;22.10;23.40;;;;;;489739;242;1184;-75
2022/02/28 00:25:19;;;;;;;;;;;22.10;23.40;;;;;;489747;242;1106;-75
2022/02/28 00:27:21;;;;;;;;;;;22.10;23.30;;;;;;489649;242;1140;-75
2022/02/28 00:29:22;;;;;;;;;;;21.90;23.40;;;;;;489714;242;1227;-75
2022/02/28 00:31:23;;;;;;;;;;;21.90;23.40;;;;;;489695;242;1230;-75
2022/02/28 00:33:25;;;;;;;;;;;21.80;23.40;;;;;;489621;242;1065;-75
2022/02/28 00:35:26;;;;;;;;;;;21.90;23.50;;;;;;489623;242;955;-75
2022/02/28 00:37:27;;;;;;;;;;;21.80;23.40;;;;;;489607;242;2197;-75
2022/02/28 00:39:29;;;;;;;;;;;21.90;23.40;;;;;;489757;242;975;-75
2022/02/28 00:41:30;;;;;;;;;;;21.80;23.40;;;;;;489687;242;1211;-75
2022/02/28 00:43:31;;;;;;;;;;;21.80;23.50;;;;;;489644;242;1159;-75
2022/02/28 00:45:32;;;;;;;;;;;21.80;23.40;;;;;;489652;242;940;-75
2022/02/28 00:47:34;;;;;;;;;;;21.80;23.40;;;;;;489674;242;1104;-75
2022/02/28 00:49:35;;;;;;;;;;;21.80;23.40;;;;;;489767;242;1127;-75
2022/02/28 00:51:36;;;;;;;;;;;21.80;23.40;;;;;;489712;242;1218;-75
2022/02/28 00:53:38;;;;;;;;;;;21.80;23.40;;;;;;489688;242;983;-75
2022/02/28 00:55:39;;;;;;;;;;;21.80;23.40;;;;;;489683;242;1037;-75
2022/02/28 00:57:40;;;;;;;;;;;21.80;23.40;;;;;;489657;242;2102;-75
2022/02/28 00:59:42;;;;;;;;;;;21.90;23.40;;;;;;489707;242;1170;-76
2022/02/28 01:01:43;;;;;;;;;;;21.80;23.40;;;;;;489650;242;1222;-75
2022/02/28 01:03:46;;;;;;;;;;;21.80;23.40;;;;;;489559;242;1123;-75
2022/02/28 01:05:46;;;;;;;;;;;21.80;23.40;;;;;;489599;242;1448;-75
2022/02/28 01:07:47;;;;;;;;;;;21.80;23.40;;;;;;489690;242;1399;-75
2022/02/28 01:09:48;;;;;;;;;;;21.70;23.40;;;;;;489753;242;935;-75
2022/02/28 01:11:50;;;;;;;;;;;21.60;23.40;;;;;;489718;242;1210;-75
2022/02/28 01:13:51;;;;;;;;;;;21.70;23.40;;;;;;489727;242;1141;-75
2022/02/28 01:15:52;;;;;;;;;;;21.70;23.40;;;;;;489699;242;1196;-75
2022/02/28 01:17:54;;;;;;;;;;;21.70;23.40;;;;;;489747;242;2193;-75
2022/02/28 01:19:55;;;;;;;;;;;21.70;23.40;;;;;;489697;242;1005;-75
2022/02/28 01:21:56;;;;;;;;;;;21.70;23.40;;;;;;489638;242;1232;-75
2022/02/28 01:23:58;;;;;;;;;;;21.60;23.40;;;;;;489726;242;1076;-75
2022/02/28 01:25:59;;;;;;;;;;;21.60;23.40;;;;;;489681;242;1168;-75
2022/02/28 01:28:00;;;;;;;;;;;21.60;23.40;;;;;;489707;242;1100;-75
2022/02/28 01:30:02;;;;;;;;;;;21.60;23.40;;;;;;489745;242;1171;-75
2022/02/28 01:32:03;;;;;;;;;;;21.60;23.40;;;;;;489609;242;1230;-75
2022/02/28 01:34:04;;;;;;;;;;;21.60;23.40;;;;;;489653;242;1106;-75
2022/02/28 01:36:06;;;;;;;;;;;21.60;23.40;;;;;;489542;242;1225;-75
2022/02/28 01:38:07;;;;;;;;;;;21.60;23.40;;;;;;489707;242;2201;-75
2022/02/28 01:40:08;;;;;;;;;;;21.70;23.40;;;;;;489681;242;960;-75
2022/02/28 01:42:10;;;;;;;;;;;21.60;23.40;;;;;;489662;242;1111;-75
2022/02/28 01:44:11;;;;;;;;;;;21.70;23.40;;;;;;489769;242;1162;-75
2022/02/28 01:46:12;;;;;;;;;;;21.70;23.40;;;;;;489665;242;1123;-75
2022/02/28 01:48:14;;;;;;;;;;;21.70;23.40;;;;;;489720;242;1256;-75
2022/02/28 01:50:15;;;;;;;;;;;21.70;23.40;;;;;;489725;242;1098;-75
2022/02/28 01:52:16;;;;;;;;;;;21.70;23.40;;;;;;489615;242;1145;-75
2022/02/28 01:54:18;;;;;;;;;;;21.50;23.30;;;;;;489690;242;1053;-75
2022/02/28 01:56:19;;;;;;;;;;;21.60;23.40;;;;;;489665;242;1213;-75
2022/02/28 01:58:20;;;;;;;;;;;21.60;23.40;;;;;;489689;242;2122;-75
2022/02/28 02:00:22;;;;;;;;;;;21.60;23.40;;;;;;489705;242;1130;-75
2022/02/28 02:02:23;;;;;;;;;;;21.50;23.40;;;;;;489539;242;1509;-75
2022/02/28 02:04:24;;;;;;;;;;;21.60;23.40;;;;;;489661;242;970;-75
2022/02/28 02:06:26;;;;;;;;;;;21.60;23.40;;;;;;489619;242;1215;-75
2022/02/28 02:08:27;;;;;;;;;;;21.60;23.40;;;;;;489590;242;951;-75
2022/02/28 02:10:28;;;;;;;;;;;21.50;23.40;;;;;;489666;242;943;-75
2022/02/28 02:12:30;;;;;;;;;;;21.50;23.40;;;;;;489609;242;1105;-75
2022/02/28 02:14:32;;;;;;;;;;;21.50;23.30;;;;;;489670;242;1134;-75
2022/02/28 02:16:33;;;;;;;;;;;21.60;23.40;;;;;;489591;242;2188;-75
2022/02/28 02:18:34;;;;;;;;;;;21.50;23.30;;;;;;489685;242;945;-75
2022/02/28 02:20:36;;;;;;;;;;;21.50;23.30;;;;;;489721;242;955;-75
2022/02/28 02:22:37;;;;;;;;;;;21.50;23.30;;;;;;489684;242;1344;-75
2022/02/28 02:24:38;;;;;;;;;;;21.40;23.30;;;;;;489687;242;1194;-75
2022/02/28 02:26:40;;;;;;;;;;;21.50;23.40;;;;;;489642;242;1241;-75
2022/02/28 02:28:41;;;;;;;;;;;21.50;23.30;;;;;;489693;242;973;-75
2022/02/28 02:30:42;;;;;;;;;;;21.50;23.30;;;;;;489632;242;1147;-75
2022/02/28 02:32:44;;;;;;;;;;;21.50;23.30;;;;;;489705;242;1179;-75
2022/02/28 02:34:45;;;;;;;;;;;21.50;23.30;;;;;;489679;242;974;-75
2022/02/28 02:36:46;;;;;;;;;;;21.60;23.40;;;;;;489701;242;2202;-75
2022/02/28 02:38:48;;;;;;;;;;;21.50;23.30;;;;;;489683;242;950;-75
2022/02/28 02:40:49;;;;;;;;;;;21.50;23.30;;;;;;489730;242;1014;-75
2022/02/28 02:42:51;;;;;;;;;;;21.60;23.30;;;;;;489648;242;1164;-75
2022/02/28 02:44:52;;;;;;;;;;;21.60;23.30;;;;;;489658;242;1130;-75
2022/02/28 02:46:54;;;;;;;;;;;21.60;23.30;;;;;;489628;242;1240;-75
2022/02/28 02:48:54;;;;;;;;;;;21.60;23.30;;;;;;489700;242;1585;-75
2022/02/28 02:50:56;;;;;;;;;;;21.70;23.20;;;;;;489682;242;954;-75
2022/02/28 02:52:57;;;;;;;;;;;21.80;23.10;;;;;;489704;242;1111;-75
2022/02/28 02:54:58;;;;;;;;;;;21.90;23.00;;;;;;489630;242;964;-75
2022/02/28 02:57:00;;;;;;;;;;;22.20;22.90;;;;;;489573;242;2184;-75
2022/02/28 02:59:01;;;;;;;;;;;22.20;22.80;;;;;;489634;242;1133;-75
2022/02/28 03:01:02;;;;;;;;;;;22.30;22.80;;;;;;489577;242;1191;-75
2022/02/28 03:03:04;;;;;;;;;;;22.40;22.70;;;;;;489706;242;1185;-75
2022/02/28 03:05:05;;;;;;;;;;;22.40;22.70;;;;;;489779;242;958;-75
2022/02/28 03:07:06;;;;;;;;;;;22.40;22.70;;;;;;489764;242;1195;-75
2022/02/28 03:09:08;;;;;;;;;;;22.30;22.70;;;;;;489716;242;1008;-75
2022/02/28 03:11:09;;;;;;;;;;;22.30;22.70;;;;;;489733;242;1286;-75
2022/02/28 03:13:10;;;;;;;;;;;22.20;22.70;;;;;;489694;242;1102;-75
2022/02/28 03:15:12;;;;;;;;;;;22.20;22.80;;;;;;489703;242;1166;-75
2022/02/28 03:17:13;;;;;;;;;;;22.10;22.80;;;;;;489623;242;2134;-75
2022/02/28 03:19:14;;;;;;;;;;;22.10;22.80;;;;;;489732;242;968;-75
2022/02/28 03:21:16;;;;;;;;;;;21.90;22.90;;;;;;489709;242;1196;-75
2022/02/28 03:23:17;;;;;;;;;;;21.90;22.90;;;;;;489635;242;1072;-75
2022/02/28 03:25:18;;;;;;;;;;;21.90;23.00;;;;;;489656;242;1106;-75
2022/02/28 03:27:20;;;;;;;;;;;21.90;22.90;;;;;;489598;242;997;-75
2022/02/28 03:29:21;;;;;;;;;;;21.90;22.90;;;;;;489726;242;1007;-75
2022/02/28 03:31:22;;;;;;;;;;;21.80;23.00;;;;;;489694;242;1201;-75
2022/02/28 03:33:24;;;;;;;;;;;21.80;23.00;;;;;;489681;242;1072;-75
2022/02/28 03:35:25;;;;;;;;;;;21.70;23.00;;;;;;489629;242;998;-75
2022/02/28 03:37:26;;;;;;;;;;;21.70;23.00;;;;;;489587;242;2201;-75
2022/02/28 03:39:28;;;;;;;;;;;21.70;23.00;;;;;;489700;242;933;-75
2022/02/28 03:41:29;;;;;;;;;;;21.70;23.00;;;;;;489592;242;1208;-75
2022/02/28 03:43:30;;;;;;;;;;;21.80;23.00;;;;;;489721;242;982;-75
2022/02/28 03:45:32;;;;;;;;;;;21.80;23.00;;;;;;489714;242;1234;-75
2022/02/28 03:47:33;;;;;;;;;;;21.90;22.90;;;;;;489643;242;1158;-75
2022/02/28 03:49:34;;;;;;;;;;;21.90;22.90;;;;;;489781;242;943;-75
2022/02/28 03:51:35;;;;;;;;;;;21.70;22.90;;;;;;489679;242;1171;-75
2022/02/28 03:53:37;;;;;;;;;;;21.80;23.00;;;;;;489698;242;947;-75
2022/02/28 03:55:38;;;;;;;;;;;21.80;22.90;;;;;;489637;242;1262;-75
2022/02/28 03:57:39;;;;;;;;;;;21.80;23.00;;;;;;489665;242;2190;-75
2022/02/28 03:59:41;;;;;;;;;;;21.70;23.00;;;;;;489680;242;951;-75
2022/02/28 04:01:42;;;;;;;;;;;21.70;23.00;;;;;;489688;242;1322;-75
2022/02/28 04:03:43;;;;;;;;;;;21.70;23.00;;;;;;489635;242;1248;-75
2022/02/28 04:05:45;;;;;;;;;;;21.60;23.00;;;;;;489682;242;1538;-75
2022/02/28 04:07:47;;;;;;;;;;;21.60;23.00;;;;;;489791;242;1101;-75
2022/02/28 04:09:48;;;;;;;;;;;21.70;23.00;;;;;;489848;242;1387;-75
2022/02/28 04:11:49;;;;;;;;;;;21.60;23.00;;;;;;489717;242;1200;-75
2022/02/28 04:13:50;;;;;;;;;;;21.70;23.00;;;;;;489833;242;1065;-75
2022/02/28 04:15:52;;;;;;;;;;;21.70;22.90;;;;;;489728;242;1228;-75
2022/02/28 04:17:53;;;;;;;;;;;21.60;22.90;;;;;;489680;242;2188;-75
2022/02/28 04:19:54;;;;;;;;;;;21.60;23.00;;;;;;489718;242;1099;-75
2022/02/28 04:21:56;;;;;;;;;;;21.70;22.90;;;;;;489670;242;937;-75
2022/02/28 04:23:57;;;;;;;;;;;21.70;22.90;;;;;;489678;242;1133;-75
2022/02/28 04:25:58;;;;;;;;;;;21.70;22.90;;;;;;489665;242;1118;-76
2022/02/28 04:28:00;;;;;;;;;;;21.60;22.90;;;;;;489646;242;1135;-75
2022/02/28 04:30:01;;;;;;;;;;;21.60;23.00;;;;;;489647;242;1136;-75
2022/02/28 04:32:03;;;;;;;;;;;21.60;23.00;;;;;;489587;242;1156;-75
2022/02/28 04:34:04;;;;;;;;;;;21.50;23.00;;;;;;489667;242;1377;-75
2022/02/28 04:36:05;;;;;;;;;;;21.50;23.00;;;;;;489561;242;1105;-75
2022/02/28 04:38:06;;;;;;;;;;;21.40;23.00;;;;;;489598;242;2118;-75
2022/02/28 04:40:08;;;;;;;;;;;21.40;23.00;;;;;;489613;242;1333;-75
2022/02/28 04:42:09;;;;;;;;;;;21.50;23.00;;;;;;489582;242;1115;-75
2022/02/28 04:44:10;;;;;;;;;;;21.50;23.00;;;;;;489744;242;1024;-75
2022/02/28 04:46:11;;;;;;;;;;;21.50;23.00;;;;;;489682;242;1136;-75
2022/02/28 04:48:13;;;;;;;;;;;21.50;22.90;;;;;;489688;242;951;-75
2022/02/28 04:50:14;;;;;;;;;;;21.50;22.90;;;;;;489770;242;1040;-75
2022/02/28 04:52:15;;;;;;;;;;;21.60;22.90;;;;;;489734;242;1134;-75
2022/02/28 04:54:17;;;;;;;;;;;21.50;22.90;;;;;;489638;242;959;-75
2022/02/28 04:56:18;;;;;;;;;;;21.40;23.00;;;;;;489580;242;1195;-75
2022/02/28 04:58:19;;;;;;;;;;;21.50;22.90;;;;;;489634;242;2107;-75
2022/02/28 05:00:21;;;;;;;;;;;21.40;23.00;;;;;;489602;242;1152;-75
2022/02/28 05:02:23;;;;;;;;;;;21.40;22.90;;;;;;489614;242;1142;-75
2022/02/28 05:04:23;;;;;;;;;;;21.40;23.00;;;;;;489697;242;1501;-75
2022/02/28 05:06:25;;;;;;;;;;;21.40;23.10;;;;;;489515;242;1221;-75
2022/02/28 05:08:26;;;;;;;;;;;21.40;23.10;;;;;;489607;242;1161;-75
2022/02/28 05:10:27;;;;;;;;;;;21.30;23.10;;;;;;489638;242;1115;-75
2022/02/28 05:12:29;;;;;;;;;;;21.40;23.00;;;;;;489603;242;1108;-75
2022/02/28 05:14:30;;;;;;;;;;;21.30;23.00;;;;;;489593;242;961;-75
2022/02/28 05:16:31;;;;;;;;;;;21.30;23.00;;;;;;489518;242;1174;-75
2022/02/28 05:18:33;;;;;;;;;;;21.40;23.00;;;;;;489576;242;2117;-75
2022/02/28 05:20:34;;;;;;;;;;;21.40;23.00;;;;;;489466;242;944;-75
2022/02/28 05:22:35;;;;;;;;;;;21.40;22.90;;;;;;489558;242;1074;-75
2022/02/28 05:24:37;;;;;;;;;;;21.60;22.90;;;;;;489630;242;1071;-76
2022/02/28 05:26:38;;;;;;;;;;;21.70;22.80;;;;;;489527;242;1179;-75
2022/02/28 05:28:39;;;;;;;;;;;21.90;22.60;;;;;;489459;242;965;-75
2022/02/28 05:30:41;;;;;;;;;;;22.00;22.60;;;;;;489397;242;959;-75
2022/02/28 05:32:42;;;;;;;;;;;22.00;22.60;;;;;;489442;242;1158;-75
2022/02/28 05:34:43;;;;;;;;;;;22.20;22.50;;;;;;489374;242;1233;-77
2022/02/28 05:36:44;;;;;;;;;;;22.20;22.40;;;;;;489277;242;1286;-75
2022/02/28 05:38:46;;;;;;;;;;;22.30;22.40;;;;;;489449;242;2114;-76
2022/02/28 05:40:50;;;;;;;;;;;22.20;22.40;;;;;;489450;242;1086;-75
2022/02/28 05:42:48;;;;;;;;;;;22.10;22.40;;;;;;489493;242;1371;-75
2022/02/28 05:44:50;;;;;;;;;;;22.10;22.40;;;;;;489554;242;970;-75
2022/02/28 05:46:51;;;;;;;;;;;22.20;22.40;;;;;;489488;242;1203;-75
2022/02/28 05:48:52;;;;;;;;;;;22.00;22.50;;;;;;489527;242;967;-75
2022/02/28 05:50:54;;;;;;;;;;;22.00;22.60;;;;;;489228;242;1209;-75
2022/02/28 05:52:55;;;;;;;;;;;21.90;22.50;;;;;;489309;242;1100;-75
2022/02/28 05:54:56;;;;;;;;;;;21.80;22.60;;;;;;489350;242;1219;-75
2022/02/28 05:56:58;;;;;;;;;;;21.80;22.70;;;;;;489361;242;1179;-75
2022/02/28 05:58:59;;;;;;;;;;;21.60;22.70;;;;;;489393;242;2113;-75
2022/02/28 06:01:00;;;;;;;;;;;21.80;22.70;;;;;;489316;242;1219;-75
2022/02/28 06:03:02;;;;;;;;;;;21.70;22.70;;;;;;489387;242;1180;-75
2022/02/28 06:05:03;;;;;;;;;;;21.70;22.70;;;;;;489540;242;928;-75
2022/02/28 06:07:04;;;;;;;;;;;21.60;22.70;;;;;;489449;242;1488;-75
2022/02/28 06:09:06;;;;;;;;;;;21.70;22.70;;;;;;489605;242;960;-75
2022/02/28 06:11:07;;;;;;;;;;;21.60;22.80;;;;;;489494;242;1497;-75
2022/02/28 06:13:08;;;;;;;;;;;21.60;22.80;;;;;;489558;242;1092;-76
2022/02/28 06:15:10;;;;;;;;;;;21.60;22.80;;;;;;489597;242;1402;-76
2022/02/28 06:17:11;;;;;;;;;;;21.60;22.80;;;;;;489379;242;1349;-75
2022/02/28 06:19:13;;;;;;;;;;;21.60;22.80;;;;;;489486;242;2106;-75
2022/02/28 06:21:14;;;;;;;;;;;21.60;22.80;;;;;;489487;242;1168;-75
2022/02/28 06:23:15;;;;;;;;;;;21.60;22.90;;;;;;489435;242;1089;-75
2022/02/28 06:25:17;;;;;;;;;;;21.60;22.80;;;;;;489362;242;1235;-76
2022/02/28 06:27:19;;;;;;;;;;;21.50;22.80;;;;;;489318;242;1809;-75
2022/02/28 06:29:19;;;;;;;;;;;21.60;22.90;;;;;;489850;242;1452;-75
2022/02/28 06:31:21;;;;;;;;;;;21.50;22.80;;;;;;489338;242;1232;-75
2022/02/28 06:33:22;;;;;;;;;;;21.60;22.90;;;;;;489382;242;2153;-75
2022/02/28 06:35:23;;;;;;;;;;;21.60;22.90;;;;;;489429;242;908;-75
2022/02/28 06:37:25;;;;;;;;;;;21.60;22.80;;;;;;489609;242;1054;-75
2022/02/28 06:39:26;;;;;;;;;;;21.60;22.80;;;;;;489328;242;2118;-75
2022/02/28 06:41:27;;;;;;;;;;;21.60;22.80;;;;;;489250;242;1115;-75
2022/02/28 06:43:29;;;;;;;;;;;21.60;22.80;;;;;;489429;242;1038;-75
2022/02/28 06:45:30;;;;;;;;;;;21.60;22.90;;;;;;489532;242;1099;-75
2022/02/28 06:47:31;;;;;;;;;;;21.50;22.90;;;;;;489476;242;1220;-75
2022/02/28 06:49:33;;;;;;;;;;;21.60;22.90;;;;;;489424;242;993;-76
2022/02/28 06:51:34;;;;;;;;;;;21.50;22.90;;;;;;489393;242;1321;-76
2022/02/28 06:53:36;;;;;;;;;;;21.60;22.90;;;;;;489650;242;944;-75
2022/02/28 06:55:40;;;;;;;;;;;21.40;23.00;;;;;;489339;242;1214;-75
2022/02/28 06:57:39;;;;;;;;;;;21.50;22.90;;;;;;489617;242;2212;-75
2022/02/28 06:59:41;;;;;;;;;;;21.40;23.00;;;;;;489227;242;2110;-75
2022/02/28 07:01:42;;;;;;;;;;;21.50;23.00;;;;;;489401;242;1179;-75
2022/02/28 07:03:43;;;;;;;;;;;21.50;23.00;;;;;;489650;242;1223;-75
2022/02/28 07:05:49;;;;;;;;;;;21.50;22.90;;;;;;489375;242;1254;-75
2022/02/28 07:07:46;;;;;;;;;;;21.50;23.00;;;;;;489544;242;1955;-75
2022/02/28 07:09:48;;;;;;;;;;;21.50;23.00;;;;;;489458;242;955;-75
2022/02/28 07:11:49;;;;;;;;;;;21.40;23.00;;;;;;489393;242;1177;-75
2022/02/28 07:13:50;;;;;;;;;;;21.60;23.00;;;;;;489228;242;977;-75
2022/02/28 07:15:52;;;;;;;;;;;21.60;23.00;;;;;;489129;242;1214;-75
2022/02/28 07:17:54;;;;;;;;;;;21.50;23.10;;;;;;489098;242;1118;-75
2022/02/28 07:19:55;;;;;;;;;;;21.40;23.00;;;;;;489591;242;2272;-75
2022/02/28 07:21:57;;;;;;;;;;;21.40;23.10;;;;;;489516;242;1203;-75
2022/02/28 07:23:58;;;;;;;;;;;21.40;23.20;;;;;;489470;242;2383;-75
2022/02/28 07:25:59;;;;;;;;;;;21.40;23.20;;;;;;489036;242;1221;-75
2022/02/28 07:28:00;;;;;;;;;;;21.40;23.30;;;;;;489173;242;1124;-75
2022/02/28 07:30:02;;;;;;;;;;;21.30;23.30;;;;;;489264;242;973;-75
2022/02/28 07:32:03;;;;;;;;;;;21.40;23.30;;;;;;489504;242;1126;-75
2022/02/28 07:34:04;;;;;;;;;;;21.40;23.30;;;;;;489004;242;1199;-75
2022/02/28 07:36:06;;;;;;;;;;;21.40;23.30;;;;;;488862;241;1152;-75
2022/02/28 07:38:07;;;;;;;;;;;21.40;23.30;;;;;;488849;242;1002;-75
2022/02/28 07:40:09;;;;;;;;;;;21.40;23.30;;;;;;488882;242;2106;-75
2022/02/28 07:42:10;;;;;;;;;;;21.30;23.20;;;;;;489012;242;1115;-75
2022/02/28 07:44:12;;;;;;;;;;;21.40;23.30;;;;;;489047;242;1070;-75
2022/02/28 07:46:13;;;;;;;;;;;21.40;23.30;;;;;;488940;242;2160;-75
2022/02/28 07:48:14;;;;;;;;;;;21.40;23.30;;;;;;488998;242;1078;-75
2022/02/28 07:50:16;;;;;;;;;;;21.40;23.30;;;;;;488816;242;1008;-75
2022/02/28 07:52:17;;;;;;;;;;;21.40;23.30;;;;;;489207;242;1223;-75
2022/02/28 07:54:18;;;;;;;;;;;21.40;23.30;;;;;;488983;242;1130;-75
2022/02/28 07:56:20;;;;;;;;;;;21.40;23.30;;;;;;488673;242;1185;-75
2022/02/28 07:58:21;;;;;;;;;;;21.50;23.30;;;;;;488849;242;1112;-75
2022/02/28 08:00:22;;;;;;;;;;;21.40;23.30;;;;;;488767;242;2237;-75
2022/02/28 08:02:24;;;;;;;;;;;21.40;23.40;;;;;;488865;242;1077;-74
2022/02/28 08:04:25;;;;;;;;;;;21.40;23.40;;;;;;488862;242;1201;-75
2022/02/28 08:06:26;;;;;;;;;;;21.50;23.40;;;;;;488805;242;1199;-75
2022/02/28 08:08:27;;;;;;;;;;;21.50;23.40;;;;;;488771;242;1044;-75
2022/02/28 08:10:29;;;;;;;;;;;21.60;23.40;;;;;;488897;242;1197;-75
2022/02/28 08:12:31;;;;;;;;;;;21.70;23.40;;;;;;488864;242;1039;-75
2022/02/28 08:14:31;;;;;;;;;;;21.80;23.20;;;;;;488894;242;1327;-75
2022/02/28 08:16:33;;;;;;;;;;;21.90;23.20;;;;;;488789;242;1228;-75
2022/02/28 08:18:34;;;;;;;;;;;22.00;23.10;;;;;;488855;242;1155;-75
2022/02/28 08:20:36;;;;;;;;;;;22.10;23.00;;;;;;488841;242;2169;-75
2022/02/28 08:22:37;;;;;;;;;;;22.30;23.00;;;;;;488844;242;1032;-75
2022/02/28 08:24:38;;;;;;;;;;;22.30;23.00;;;;;;488930;242;981;-75
2022/02/28 08:26:40;;;;;;;;;;;22.20;23.00;;;;;;488960;242;1202;-75
2022/02/28 08:28:41;;;;;;;;;;;22.30;23.00;;;;;;488896;242;1029;-75
2022/02/28 08:30:42;;;;;;;;;;;22.30;23.00;;;;;;488742;242;1129;-75
2022/02/28 08:32:44;;;;;;;;;;;22.20;23.10;;;;;;488620;242;1125;-75
2022/02/28 08:34:45;;;;;;;;;;;22.10;23.10;;;;;;488744;242;1198;-75
2022/02/28 08:36:46;;;;;;;;;;;22.10;23.20;;;;;;488639;242;1081;-77
2022/02/28 08:38:49;;;;;;;;;;;22.00;23.30;;;;;;488454;241;2241;-75
2022/02/28 08:40:49;;;;;;;;;;;22.00;23.30;;;;;;488406;242;1473;-75
2022/02/28 08:42:51;;;;;;;;;;;22.00;23.30;;;;;;488378;242;1315;-75
2022/02/28 08:44:52;;;;;;;;;;;22.00;23.40;;;;;;488665;242;1088;-75
2022/02/28 08:46:53;;;;;;;;;;;21.90;23.50;;;;;;488944;242;1358;-75
2022/02/28 08:48:55;;;;;;;;;;;21.80;23.50;;;;;;488685;242;1132;-75
2022/02/28 08:50:56;;;;;;;;;;;21.80;23.50;;;;;;488917;242;1227;-75
2022/02/28 08:52:58;;;;;;;;;;;21.70;23.50;;;;;;488769;242;998;-76
2022/02/28 08:54:59;;;;;;;;;;;21.80;23.50;;;;;;488795;241;1365;-75
2022/02/28 08:57:03;;;;;;;;;;;21.70;23.60;;;;;;488865;242;1060;-75
2022/02/28 08:59:01;;;;;;;;;;;21.70;23.50;;;;;;489102;242;2157;-75
2022/02/28 09:01:03;;;;;;;;;;;21.80;23.50;;;;;;488830;242;1041;-75
2022/02/28 09:03:06;;;;;;;;;;;21.80;23.50;;;;;;488893;242;1169;-75
2022/02/28 09:05:06;;;;;;;;;;;21.80;23.50;;;;;;488863;242;1403;-75
2022/02/28 09:07:07;;;;;;;;;;;21.80;23.60;;;;;;488770;242;1219;-75
2022/02/28 09:09:08;;;;;;;;;;;21.80;23.60;;;;;;488662;242;1056;-75
2022/02/28 09:11:10;;;;;;;;;;;21.80;23.60;;;;;;488599;242;1129;-75
2022/02/28 09:13:11;;;;;;;;;;;21.80;23.70;;;;;;488781;242;1065;-75
2022/02/28 09:15:12;;;;;;;;;;;21.80;23.70;;;;;;488679;242;949;-75
2022/02/28 09:17:14;;;;;;;;;;;21.80;23.70;;;;;;488774;242;1374;-75
2022/02/28 09:19:15;;;;;;;;;;;21.70;23.70;;;;;;488920;242;2181;-75
2022/02/28 09:21:16;;;;;;;;;;;21.80;23.70;;;;;;488885;242;973;-75
2022/02/28 09:23:18;;;;;;;;;;;21.90;23.70;;;;;;488958;242;1037;-75
2022/02/28 09:25:20;;;;;;;;;;;21.80;23.70;;;;;;488831;242;1023;-76
2022/02/28 09:27:20;;;;;;;;;;;21.90;23.80;;;;;;488849;242;1387;-75
2022/02/28 09:29:22;;;;;;;;;;;21.80;23.80;;;;;;488851;242;965;-75
2022/02/28 09:31:23;;;;;;;;;;;21.80;23.80;;;;;;488873;242;1091;-75
2022/02/28 09:33:24;;;;;;;;;;;21.80;23.90;;;;;;488795;242;1237;-75
2022/02/28 09:35:26;;;;;;;;;;;21.70;23.80;;;;;;488709;242;1121;-75
2022/02/28 09:37:27;;;;;;;;;;;21.80;23.90;;;;;;488845;242;1463;-75
2022/02/28 09:39:28;;;;;;;;;;;21.70;23.90;;;;;;488823;242;2114;-75
2022/02/28 09:41:30;;;;;;;;;;;21.80;24.00;;;;;;488813;242;1268;-75
2022/02/28 09:43:31;;;;;;;;;;;21.80;24.00;;;;;;488827;242;1263;-76
2022/02/28 09:45:33;;;;;;;;;;;21.90;23.90;;;;;;488800;242;1063;-75
2022/02/28 09:47:34;;;;;;;;;;;21.90;23.90;;;;;;488892;242;1145;-75
2022/02/28 09:49:35;;;;;;;;;;;21.80;23.90;;;;;;488916;242;1292;-75
2022/02/28 09:51:37;;;;;;;;;;;21.80;24.00;;;;;;488809;242;1106;-75
2022/02/28 09:53:38;;;;;;;;;;;21.90;24.00;;;;;;488925;242;1109;-75
2022/02/28 09:55:39;;;;;;;;;;;21.90;24.00;;;;;;488736;242;1204;-75
2022/02/28 09:57:41;;;;;;;;;;;21.90;24.00;;;;;;488815;242;1081;-75
2022/02/28 09:59:42;;;;;;;;;;;21.90;24.00;;;;;;488758;242;2189;-75
2022/02/28 10:01:43;;;;;;;;;;;21.90;24.00;;;;;;488702;242;1337;-75
2022/02/28 10:03:44;;;;;;;;;;;21.90;24.00;;;;;;488822;242;1048;-75
2022/02/28 10:05:46;;;;;;;;;;;21.80;24.10;;;;;;488916;242;1469;-75
2022/02/28 10:07:47;;;;;;;;;;;21.80;24.10;;;;;;488892;242;1154;-75
2022/02/28 10:09:48;;;;;;;;;;;21.80;24.10;;;;;;488642;242;1023;-75
2022/02/28 10:11:50;;;;;;;;;;;21.80;24.10;;;;;;489018;242;1119;-75
2022/02/28 10:13:52;;;;;;;;;;;21.70;24.00;;;;;;489030;242;1088;-75
2022/02/28 10:15:53;;;;;;;;;;;21.50;24.20;;;;;;489020;242;1220;-75
2022/02/28 10:17:55;;;;;;;;;;;21.40;24.40;;;;;;489024;242;1045;-75
2022/02/28 10:19:56;;;;;;;;;;;21.30;24.50;;;;;;488849;242;2193;-76
2022/02/28 10:21:57;;;;;;;;;;;21.30;24.50;;;;;;488878;242;1129;-76
2022/02/28 10:23:59;;;;;;;;;;;21.30;24.50;;;;;;488785;242;990;-76
2022/02/28 10:26:00;;;;;;;;;;;21.40;24.40;;;;;;488572;242;1271;-75
2022/02/28 10:28:01;;;;;;;;;;;21.50;24.30;;;;;;488728;242;1056;-76
2022/02/28 10:30:03;;;;;;;;;;;21.50;24.40;;;;;;485008;237;1858;-76
2022/02/28 10:32:04;;;;;;;;;;;21.30;24.50;;;;;;442565;242;63929;-75
2022/02/28 10:34:05;;;;;;;;;;;21.10;24.60;;;;;;442296;266;1454;-75
2022/02/28 10:36:10;;;;;;;;;;;21.10;24.60;;;;;;454993;260;1370;-75
2022/02/28 10:38:11;;;;;;;;;;;21.00;24.70;;;;;;455315;261;1236;-76
2022/02/28 10:40:13;;;;;;;;;;;21.00;24.70;;;;;;455260;261;2191;-75
2022/02/28 10:42:15;;;;;;;;;;;21.00;24.70;;;;;;455480;260;1217;-75
2022/02/28 10:44:16;;;;;;;;;;;21.00;24.70;;;;;;455495;261;992;-76
2022/02/28 10:46:17;;;;;;;;;;;21.00;24.70;;;;;;455277;261;1126;-75
2022/02/28 10:48:19;;;;;;;;;;;21.00;24.70;;;;;;455497;260;1277;-75
2022/02/28 10:50:20;;;;;;;;;;;21.10;24.70;;;;;;455304;261;1245;-75
2022/02/28 10:52:21;;;;;;;;;;;21.20;24.60;;;;;;455304;261;1182;-75
2022/02/28 10:54:23;;;;;;;;;;;21.30;24.50;;;;;;455356;260;1037;-76
2022/02/28 10:56:24;;;;;;;;;;;21.50;24.40;;;;;;455346;260;1257;-75
2022/02/28 10:58:26;;;;;;;;;;;21.80;24.20;;;;;;455679;260;1066;-76
2022/02/28 11:00:27;;;;;;;;;;;22.00;24.10;;;;;;455193;256;2218;-76
2022/02/28 11:02:28;;;;;;;;;;;22.10;23.90;;;;;;455066;261;1198;-76
2022/02/28 11:04:29;;;;;;;;;;;22.30;23.70;;;;;;455288;261;1160;-76
2022/02/28 11:06:31;;;;;;;;;;;22.40;23.70;;;;;;455332;260;1297;-75
2022/02/28 11:08:32;;;;;;;;;;;22.30;23.60;;;;;;455405;261;1011;-76
2022/02/28 11:10:34;;;;;;;;;;;22.30;23.60;;;;;;455376;261;1130;-75
2022/02/28 11:12:35;;;;;;;;;;;22.30;23.60;;;;;;455484;260;1224;-75
2022/02/28 11:14:37;;;;;;;;;;;22.30;23.60;;;;;;447664;265;1071;-75
2022/02/28 11:16:37;;;;;;;;;;;22.20;23.60;;;;;;455526;256;1367;-76
2022/02/28 11:18:39;;;;;;;;;;;22.10;23.50;;;;;;455443;261;1022;-75
2022/02/28 11:20:40;;;;;;;;;;;22.00;23.50;;;;;;455439;260;2168;-76
2022/02/28 11:22:41;;;;;;;;;;;21.90;23.60;;;;;;455496;260;1178;-75
2022/02/28 11:24:44;;;;;;;;;;;21.80;23.70;;;;;;455347;260;1055;-75
2022/02/28 11:26:44;;;;;;;;;;;21.80;23.70;;;;;;455525;256;1352;-75
2022/02/28 11:28:46;;;;;;;;;;;21.70;23.80;;;;;;455247;260;996;-76
2022/02/28 11:30:47;;;;;;;;;;;21.60;23.80;;;;;;455323;260;1156;-76
2022/02/28 11:32:48;;;;;;;;;;;21.50;23.80;;;;;;455275;261;1215;-75
2022/02/28 11:34:51;;;;;;;;;;;21.60;23.80;;;;;;455430;260;1194;-76
2022/02/28 11:36:52;;;;;;;;;;;21.60;23.80;;;;;;455357;256;1464;-76
2022/02/28 11:38:53;;;;;;;;;;;21.60;23.80;;;;;;455240;256;1423;-76
2022/02/28 11:40:55;;;;;;;;;;;21.60;23.80;;;;;;455275;260;2206;-76
2022/02/28 11:42:56;;;;;;;;;;;21.50;23.80;;;;;;455605;260;1024;-76
2022/02/28 11:44:58;;;;;;;;;;;21.50;23.80;;;;;;455296;261;981;-75
2022/02/28 11:46:59;;;;;;;;;;;21.50;23.80;;;;;;455356;261;1133;-76
2022/02/28 11:49:01;;;;;;;;;;;21.60;23.80;;;;;;455480;260;978;-75
2022/02/28 11:51:02;;;;;;;;;;;21.50;23.70;;;;;;455445;260;1437;-75
2022/02/28 11:53:03;;;;;;;;;;;21.60;23.70;;;;;;455792;261;1172;-76
2022/02/28 11:55:05;;;;;;;;;;;21.60;23.60;;;;;;455323;260;1179;-76
2022/02/28 11:57:06;;;;;;;;;;;21.60;23.60;;;;;;455475;260;1136;-75